createdAt,value
2022-11-21T00:00:09.892Z,0.00
2022-11-21T00:01:10.051Z,0.00
2022-11-21T00:02:10.302Z,0.00
2022-11-21T00:03:10.410Z,0.00
2022-11-21T00:04:12.456Z,0.00
2022-11-21T00:05:10.772Z,0.00
2022-11-21T00:06:10.960Z,0.00
2022-11-21T00:07:11.155Z,0.00
2022-11-21T00:08:11.310Z,0.00
2022-11-21T00:09:11.490Z,0.00
2022-11-21T00:10:11.640Z,0.00
2022-11-21T00:11:11.827Z,0.00
2022-11-21T00:12:12.442Z,0.00
2022-11-21T00:13:13.530Z,0.00
2022-11-21T00:14:13.730Z,0.00
2022-11-21T00:15:12.722Z,0.00
2022-11-21T00:16:12.670Z,0.00
2022-11-21T00:17:12.850Z,0.00
2022-11-21T00:18:13.026Z,0.00
2022-11-21T00:19:13.192Z,0.00
2022-11-21T00:20:13.398Z,0.00
2022-11-21T00:21:13.529Z,0.00
2022-11-21T00:22:13.700Z,0.00
2022-11-21T00:23:16.466Z,0.00
2022-11-21T00:24:15.674Z,0.00
2022-11-21T00:25:14.989Z,0.00
2022-11-21T00:26:16.307Z,0.00
2022-11-21T00:27:17.116Z,0.00
2022-11-21T00:28:14.770Z,0.00
2022-11-21T00:29:14.938Z,0.00
2022-11-21T00:30:15.149Z,0.00
2022-11-21T00:31:15.278Z,0.00
2022-11-21T00:32:17.170Z,0.00
2022-11-21T00:33:18.196Z,0.00
2022-11-21T00:34:17.434Z,0.00
2022-11-21T00:35:16.951Z,0.00
2022-11-21T00:36:18.156Z,0.00
2022-11-21T00:37:19.751Z,0.00
2022-11-21T00:38:18.002Z,0.00
2022-11-21T00:39:17.911Z,0.00
2022-11-21T00:40:18.674Z,0.00
2022-11-21T00:41:18.504Z,0.00
2022-11-21T00:42:17.291Z,0.00
2022-11-21T00:43:17.339Z,0.00
2022-11-21T00:44:17.508Z,0.00
2022-11-21T00:45:23.825Z,0.00
2022-11-21T00:46:18.850Z,0.00
2022-11-21T00:47:17.998Z,0.00
2022-11-21T00:48:18.175Z,0.00
2022-11-21T00:49:18.346Z,0.00
2022-11-21T00:50:18.535Z,0.00
2022-11-21T00:51:18.696Z,0.00
2022-11-21T00:52:18.876Z,0.00
2022-11-21T00:53:19.045Z,0.00
2022-11-21T00:54:19.235Z,0.00
2022-11-21T00:55:19.415Z,0.00
2022-11-21T00:56:19.586Z,0.00
2022-11-21T00:57:19.756Z,0.00
2022-11-21T00:58:19.925Z,0.00
2022-11-21T00:59:20.116Z,0.00
2022-11-21T01:00:20.294Z,0.00
2022-11-21T01:01:20.532Z,0.00
2022-11-21T01:02:20.637Z,0.00
2022-11-21T01:03:20.825Z,0.00
2022-11-21T01:04:20.975Z,0.00
2022-11-21T01:05:21.315Z,0.00
2022-11-21T01:06:21.334Z,0.00
2022-11-21T01:07:21.529Z,0.00
2022-11-21T01:08:21.691Z,0.00
2022-11-21T01:09:21.856Z,0.00
2022-11-21T01:10:22.024Z,0.00
2022-11-21T01:11:22.193Z,0.00
2022-11-21T01:12:22.363Z,0.00
2022-11-21T01:13:22.543Z,0.00
2022-11-21T01:14:22.723Z,0.00
2022-11-21T01:15:22.921Z,0.00
2022-11-21T01:16:23.067Z,0.00
2022-11-21T01:17:23.223Z,0.00
2022-11-21T01:18:23.392Z,0.00
2022-11-21T01:19:23.563Z,0.00
2022-11-21T01:20:23.752Z,0.00
2022-11-21T01:21:23.934Z,0.00
2022-11-21T01:22:24.093Z,0.00
2022-11-21T01:23:24.260Z,0.00
2022-11-21T01:24:24.500Z,0.00
2022-11-21T01:25:24.621Z,0.00
2022-11-21T01:26:24.777Z,0.00
2022-11-21T01:27:24.936Z,0.00
2022-11-21T01:28:25.130Z,0.00
2022-11-21T01:29:25.280Z,0.00
2022-11-21T01:30:25.492Z,0.00
2022-11-21T01:31:25.620Z,0.00
2022-11-21T01:32:25.800Z,0.00
2022-11-21T01:33:25.971Z,0.00
2022-11-21T01:34:26.383Z,0.00
2022-11-21T01:35:26.317Z,0.00
2022-11-21T01:36:26.478Z,0.00
2022-11-21T01:37:26.640Z,0.00
2022-11-21T01:38:26.819Z,0.00
2022-11-21T01:39:27.004Z,0.00
2022-11-21T01:40:27.198Z,0.00
2022-11-21T01:41:27.367Z,0.00
2022-11-21T01:42:27.559Z,0.00
2022-11-21T01:43:27.708Z,0.00
2022-11-21T01:44:28.193Z,0.00
2022-11-21T01:45:28.047Z,0.00
2022-11-21T01:46:28.214Z,0.00
2022-11-21T01:47:28.378Z,0.00
2022-11-21T01:48:28.545Z,0.00
2022-11-21T01:49:28.719Z,0.00
2022-11-21T01:50:28.927Z,0.00
2022-11-21T01:51:29.077Z,0.00
2022-11-21T01:52:29.286Z,0.00
2022-11-21T01:53:29.428Z,0.00
2022-11-21T01:54:29.970Z,0.00
2022-11-21T01:55:29.796Z,0.00
2022-11-21T01:56:29.926Z,0.00
2022-11-21T01:57:30.104Z,0.00
2022-11-21T01:58:30.266Z,0.00
2022-11-21T01:59:30.456Z,0.00
2022-11-21T02:00:30.644Z,0.00
2022-11-21T02:01:30.819Z,0.00
2022-11-21T02:02:30.964Z,0.00
2022-11-21T02:03:31.135Z,0.00
2022-11-21T02:04:31.320Z,0.00
2022-11-21T02:05:31.522Z,0.00
2022-11-21T02:06:31.656Z,0.00
2022-11-21T02:07:31.919Z,0.00
2022-11-21T02:08:32.018Z,0.00
2022-11-21T02:09:32.196Z,0.00
2022-11-21T02:10:32.375Z,0.00
2022-11-21T02:11:32.563Z,0.00
2022-11-21T02:12:32.732Z,0.00
2022-11-21T02:13:32.894Z,0.00
2022-11-21T02:14:33.068Z,0.00
2022-11-21T02:15:33.252Z,0.00
2022-11-21T02:16:33.395Z,0.00
2022-11-21T02:17:33.575Z,0.00
2022-11-21T02:18:33.734Z,0.00
2022-11-21T02:19:33.924Z,0.00
2022-11-21T02:20:34.132Z,0.00
2022-11-21T02:21:34.298Z,0.00
2022-11-21T02:22:34.453Z,0.00
2022-11-21T02:23:34.624Z,0.00
2022-11-21T02:24:34.822Z,0.00
2022-11-21T02:25:34.989Z,0.00
2022-11-21T02:26:35.134Z,0.00
2022-11-21T02:27:35.311Z,0.00
2022-11-21T02:28:35.493Z,0.00
2022-11-21T02:29:35.673Z,0.00
2022-11-21T02:30:35.868Z,0.00
2022-11-21T02:31:36.020Z,0.00
2022-11-21T02:32:36.169Z,0.00
2022-11-21T02:33:36.351Z,0.00
2022-11-21T02:34:36.538Z,0.00
2022-11-21T02:35:36.700Z,0.00
2022-11-21T02:36:36.851Z,0.00
2022-11-21T02:37:37.041Z,0.00
2022-11-21T02:38:37.208Z,0.00
2022-11-21T02:39:37.391Z,0.00
2022-11-21T02:40:37.583Z,0.00
2022-11-21T02:41:37.748Z,0.00
2022-11-21T02:42:37.908Z,0.00
2022-11-21T02:43:38.097Z,0.00
2022-11-21T02:44:38.269Z,0.00
2022-11-21T02:45:38.468Z,0.00
2022-11-21T02:46:38.617Z,0.00
2022-11-21T02:47:38.798Z,0.00
2022-11-21T02:48:38.958Z,0.00
2022-11-21T02:49:39.146Z,0.00
2022-11-21T02:50:39.329Z,0.00
2022-11-21T02:51:39.509Z,0.00
2022-11-21T02:52:39.698Z,0.00
2022-11-21T02:53:39.883Z,0.00
2022-11-21T02:54:40.056Z,0.00
2022-11-21T02:55:40.251Z,0.00
2022-11-21T02:56:40.427Z,0.00
2022-11-21T02:57:40.606Z,0.00
2022-11-21T02:58:40.786Z,0.00
2022-11-21T02:59:40.976Z,0.00
2022-11-21T03:00:41.253Z,0.00
2022-11-21T03:01:41.337Z,0.00
2022-11-21T03:02:41.494Z,0.00
2022-11-21T03:03:41.676Z,0.00
2022-11-21T03:04:41.862Z,0.00
2022-11-21T03:05:42.054Z,0.00
2022-11-21T03:06:42.204Z,0.00
2022-11-21T03:07:42.473Z,0.00
2022-11-21T03:08:42.568Z,0.00
2022-11-21T03:09:42.745Z,0.00
2022-11-21T03:10:42.934Z,0.00
2022-11-21T03:11:43.117Z,0.00
2022-11-21T03:12:43.294Z,0.00
2022-11-21T03:13:43.485Z,0.00
2022-11-21T03:14:43.662Z,0.00
2022-11-21T03:15:43.865Z,0.00
2022-11-21T03:16:44.013Z,0.00
2022-11-21T03:17:44.191Z,0.00
2022-11-21T03:18:44.363Z,0.00
2022-11-21T03:19:44.553Z,0.00
2022-11-21T03:20:44.743Z,0.00
2022-11-21T03:21:44.894Z,0.00
2022-11-21T03:22:45.073Z,0.00
2022-11-21T03:23:45.236Z,0.00
2022-11-21T03:24:45.413Z,0.00
2022-11-21T03:25:45.602Z,0.00
2022-11-21T03:26:45.762Z,0.00
2022-11-21T03:27:45.930Z,0.00
2022-11-21T03:28:46.110Z,0.00
2022-11-21T03:29:46.310Z,0.00
2022-11-21T03:30:46.492Z,0.00
2022-11-21T03:31:46.642Z,0.00
2022-11-21T03:32:46.823Z,0.00
2022-11-21T03:33:46.993Z,0.00
2022-11-21T03:34:47.170Z,0.00
2022-11-21T03:35:47.387Z,0.00
2022-11-21T03:36:47.512Z,0.00
2022-11-21T03:37:47.701Z,0.00
2022-11-21T03:38:47.892Z,0.00
2022-11-21T03:39:48.061Z,0.00
2022-11-21T03:40:48.250Z,0.00
2022-11-21T03:41:48.408Z,0.00
2022-11-21T03:42:48.588Z,0.00
2022-11-21T03:43:48.768Z,0.00
2022-11-21T03:44:48.949Z,0.00
2022-11-21T03:45:49.138Z,0.00
2022-11-21T03:46:49.319Z,0.00
2022-11-21T03:47:49.505Z,0.00
2022-11-21T03:48:49.687Z,0.00
2022-11-21T03:49:49.870Z,0.00
2022-11-21T03:50:50.067Z,0.00
2022-11-21T03:51:50.257Z,0.00
2022-11-21T03:52:50.400Z,0.00
2022-11-21T03:53:50.579Z,0.00
2022-11-21T03:54:50.758Z,0.00
2022-11-21T03:55:50.937Z,0.00
2022-11-21T03:56:51.126Z,0.00
2022-11-21T03:57:51.306Z,0.00
2022-11-21T03:58:52.459Z,0.00
2022-11-21T03:59:51.667Z,0.00
2022-11-21T04:00:51.869Z,0.00
2022-11-21T04:01:52.064Z,0.00
2022-11-21T04:02:52.177Z,0.00
2022-11-21T04:03:52.358Z,0.00
2022-11-21T04:04:52.542Z,0.00
2022-11-21T04:05:52.779Z,0.00
2022-11-21T04:06:52.886Z,0.00
2022-11-21T04:07:53.069Z,0.00
2022-11-21T04:08:53.234Z,0.00
2022-11-21T04:09:53.417Z,0.00
2022-11-21T04:10:53.600Z,0.00
2022-11-21T04:11:53.785Z,0.00
2022-11-21T04:12:53.981Z,0.00
2022-11-21T04:13:54.145Z,0.00
2022-11-21T04:14:54.326Z,0.00
2022-11-21T04:15:54.523Z,0.00
2022-11-21T04:16:54.693Z,0.00
2022-11-21T04:17:54.835Z,0.00
2022-11-21T04:18:55.017Z,0.00
2022-11-21T04:19:55.194Z,0.00
2022-11-21T04:20:55.395Z,0.00
2022-11-21T04:21:55.555Z,0.00
2022-11-21T04:22:55.705Z,0.00
2022-11-21T04:23:55.885Z,0.00
2022-11-21T04:24:56.063Z,0.00
2022-11-21T04:25:56.273Z,0.00
2022-11-21T04:26:56.413Z,0.00
2022-11-21T04:27:56.622Z,0.00
2022-11-21T04:28:56.773Z,0.00
2022-11-21T04:29:56.954Z,0.00
2022-11-21T04:31:00.556Z,0.00
2022-11-21T04:31:57.304Z,0.00
2022-11-21T04:32:57.452Z,0.00
2022-11-21T04:33:57.634Z,0.00
2022-11-21T04:34:57.812Z,0.00
2022-11-21T04:35:58.023Z,0.00
2022-11-21T04:36:58.194Z,0.00
2022-11-21T04:37:58.342Z,0.00
2022-11-21T04:38:58.537Z,0.00
2022-11-21T04:39:58.711Z,0.00
2022-11-21T04:40:58.893Z,0.00
2022-11-21T04:41:59.089Z,0.00
2022-11-21T04:42:59.221Z,0.00
2022-11-21T04:43:59.408Z,0.00
2022-11-21T04:44:59.580Z,0.00
2022-11-21T04:45:59.792Z,0.00
2022-11-21T04:47:03.888Z,0.00
2022-11-21T04:48:01.100Z,0.00
2022-11-21T04:49:00.271Z,0.00
2022-11-21T04:50:00.452Z,0.00
2022-11-21T04:51:01.129Z,0.00
2022-11-21T04:52:00.810Z,0.00
2022-11-21T04:53:00.980Z,0.00
2022-11-21T04:54:01.150Z,0.00
2022-11-21T04:55:01.329Z,0.00
2022-11-21T04:56:01.527Z,0.00
2022-11-21T04:57:01.703Z,0.00
2022-11-21T04:58:01.901Z,0.00
2022-11-21T04:59:02.060Z,0.00
2022-11-21T05:00:02.249Z,0.00
2022-11-21T05:01:02.452Z,0.00
2022-11-21T05:02:02.590Z,0.00
2022-11-21T05:03:02.758Z,0.00
2022-11-21T05:04:02.938Z,0.00
2022-11-21T05:05:03.117Z,0.00
2022-11-21T05:06:03.326Z,0.00
2022-11-21T05:07:03.499Z,0.00
2022-11-21T05:08:03.646Z,0.00
2022-11-21T05:09:03.816Z,0.00
2022-11-21T05:10:04.010Z,0.00
2022-11-21T05:11:04.197Z,0.00
2022-11-21T05:12:04.350Z,0.00
2022-11-21T05:13:04.528Z,0.00
2022-11-21T05:14:04.716Z,0.00
2022-11-21T05:15:04.886Z,0.00
2022-11-21T05:16:05.107Z,0.00
2022-11-21T05:17:05.250Z,0.00
2022-11-21T05:18:05.443Z,0.00
2022-11-21T05:19:05.610Z,0.00
2022-11-21T05:20:05.801Z,0.00
2022-11-21T05:21:05.985Z,0.00
2022-11-21T05:22:06.137Z,0.00
2022-11-21T05:23:06.321Z,0.00
2022-11-21T05:24:06.496Z,0.00
2022-11-21T05:25:06.681Z,0.00
2022-11-21T05:26:06.857Z,0.00
2022-11-21T05:27:07.045Z,0.00
2022-11-21T05:28:07.247Z,0.00
2022-11-21T05:29:07.415Z,0.00
2022-11-21T05:30:07.598Z,0.00
2022-11-21T05:31:07.786Z,0.00
2022-11-21T05:32:07.945Z,0.00
2022-11-21T05:33:08.124Z,0.00
2022-11-21T05:34:08.310Z,0.00
2022-11-21T05:35:08.500Z,0.00
2022-11-21T05:36:08.691Z,0.00
2022-11-21T05:37:08.822Z,0.00
2022-11-21T05:38:09.007Z,0.00
2022-11-21T05:39:09.177Z,0.00
2022-11-21T05:40:09.353Z,0.00
2022-11-21T05:41:09.562Z,0.00
2022-11-21T05:42:09.711Z,0.00
2022-11-21T05:43:09.862Z,0.00
2022-11-21T05:44:10.049Z,0.00
2022-11-21T05:45:10.268Z,0.00
2022-11-21T05:46:10.439Z,0.00
2022-11-21T05:47:10.589Z,0.00
2022-11-21T05:48:10.773Z,0.00
2022-11-21T05:49:10.960Z,0.00
2022-11-21T05:50:11.163Z,0.00
2022-11-21T05:51:11.343Z,0.00
2022-11-21T05:52:11.491Z,0.00
2022-11-21T05:53:11.663Z,0.00
2022-11-21T05:54:11.859Z,0.00
2022-11-21T05:55:12.028Z,0.00
2022-11-21T05:56:12.220Z,0.00
2022-11-21T05:57:12.368Z,0.00
2022-11-21T05:58:12.543Z,0.00
2022-11-21T05:59:12.719Z,0.00
2022-11-21T06:00:12.913Z,0.00
2022-11-21T06:01:13.119Z,0.00
2022-11-21T06:02:13.271Z,0.00
2022-11-21T06:03:13.484Z,0.00
2022-11-21T06:04:13.627Z,0.00
2022-11-21T06:05:13.802Z,0.00
2022-11-21T06:06:14.001Z,0.00
2022-11-21T06:07:14.188Z,0.00
2022-11-21T06:08:14.328Z,0.00
2022-11-21T06:09:14.509Z,4.00
2022-11-21T06:10:14.679Z,4.00
2022-11-21T06:11:14.888Z,0.00
2022-11-21T06:12:15.045Z,4.00
2022-11-21T06:13:15.228Z,4.00
2022-11-21T06:14:15.411Z,4.00
2022-11-21T06:15:15.588Z,8.00
2022-11-21T06:16:15.797Z,8.00
2022-11-21T06:17:15.947Z,8.00
2022-11-21T06:18:16.126Z,12.00
2022-11-21T06:19:16.318Z,12.00
2022-11-21T06:20:16.496Z,16.00
2022-11-21T06:21:16.676Z,12.00
2022-11-21T06:22:16.839Z,16.00
2022-11-21T06:23:17.008Z,20.00
2022-11-21T06:24:21.881Z,24.00
2022-11-21T06:25:18.355Z,28.00
2022-11-21T06:26:17.549Z,32.00
2022-11-21T06:27:17.728Z,32.00
2022-11-21T06:28:17.901Z,40.00
2022-11-21T06:29:18.070Z,44.00
2022-11-21T06:30:22.175Z,48.00
2022-11-21T06:31:18.435Z,56.00
2022-11-21T06:32:18.606Z,60.00
2022-11-21T06:33:18.753Z,68.00
2022-11-21T06:34:18.914Z,76.00
2022-11-21T06:35:19.076Z,80.00
2022-11-21T06:36:19.264Z,88.00
2022-11-21T06:37:19.434Z,96.00
2022-11-21T06:38:19.635Z,108.00
2022-11-21T06:39:19.816Z,116.00
2022-11-21T06:40:19.995Z,120.00
2022-11-21T06:41:20.211Z,128.00
2022-11-21T06:42:20.383Z,140.00
2022-11-21T06:43:20.543Z,152.00
2022-11-21T06:44:20.708Z,164.00
2022-11-21T06:45:20.883Z,172.00
2022-11-21T06:46:21.097Z,184.00
2022-11-21T06:47:21.238Z,192.00
2022-11-21T06:48:21.381Z,204.00
2022-11-21T06:49:21.554Z,216.00
2022-11-21T06:50:21.714Z,228.00
2022-11-21T06:51:21.997Z,244.00
2022-11-21T06:52:22.056Z,264.00
2022-11-21T06:53:22.222Z,280.00
2022-11-21T06:54:22.416Z,300.00
2022-11-21T06:55:22.732Z,328.00
2022-11-21T06:56:22.770Z,364.00
2022-11-21T06:57:22.922Z,400.00
2022-11-21T06:58:23.074Z,436.00
2022-11-21T06:59:23.308Z,464.00
2022-11-21T07:00:23.441Z,484.00
2022-11-21T07:01:23.687Z,504.00
2022-11-21T07:02:23.750Z,524.00
2022-11-21T07:03:23.931Z,464.00
2022-11-21T07:04:24.098Z,592.00
2022-11-21T07:05:24.264Z,616.00
2022-11-21T07:06:24.457Z,628.00
2022-11-21T07:07:24.633Z,648.00
2022-11-21T07:08:24.760Z,648.00
2022-11-21T07:09:33.489Z,672.00
2022-11-21T07:10:26.111Z,712.00
2022-11-21T07:11:25.884Z,776.00
2022-11-21T07:12:25.440Z,848.00
2022-11-21T07:13:25.648Z,928.00
2022-11-21T07:14:25.779Z,1008.00
2022-11-21T07:15:25.952Z,1076.00
2022-11-21T07:16:26.537Z,1128.00
2022-11-21T07:17:26.318Z,1128.00
2022-11-21T07:18:26.507Z,1080.00
2022-11-21T07:19:27.096Z,1032.00
2022-11-21T07:20:26.859Z,980.00
2022-11-21T07:21:27.046Z,916.00
2022-11-21T07:22:27.208Z,856.00
2022-11-21T07:23:27.431Z,840.00
2022-11-21T07:24:27.547Z,812.00
2022-11-21T07:25:30.305Z,788.00
2022-11-21T07:26:28.908Z,796.00
2022-11-21T07:27:28.050Z,776.00
2022-11-21T07:28:28.207Z,768.00
2022-11-21T07:29:28.695Z,796.00
2022-11-21T07:30:28.666Z,852.00
2022-11-21T07:31:28.729Z,848.00
2022-11-21T07:32:28.899Z,836.00
2022-11-21T07:33:29.061Z,828.00
2022-11-21T07:34:29.244Z,840.00
2022-11-21T07:35:29.404Z,828.00
2022-11-21T07:36:32.416Z,784.00
2022-11-21T07:37:29.794Z,828.00
2022-11-21T07:38:29.903Z,816.00
2022-11-21T07:39:30.206Z,852.00
2022-11-21T07:40:30.275Z,856.00
2022-11-21T07:41:30.414Z,960.00
2022-11-21T07:42:30.595Z,1004.00
2022-11-21T07:43:30.768Z,888.00
2022-11-21T07:44:30.935Z,912.00
2022-11-21T07:45:31.134Z,888.00
2022-11-21T07:46:31.276Z,896.00
2022-11-21T07:47:31.467Z,960.00
2022-11-21T07:48:31.618Z,1048.00
2022-11-21T07:49:31.817Z,1188.00
2022-11-21T07:50:31.984Z,1512.00
2022-11-21T07:51:32.154Z,1752.00
2022-11-21T07:52:32.343Z,1876.00
2022-11-21T07:53:32.505Z,1908.00
2022-11-21T07:54:32.675Z,1988.00
2022-11-21T07:55:37.660Z,2140.00
2022-11-21T07:56:34.022Z,2268.00
2022-11-21T07:57:33.213Z,2168.00
2022-11-21T07:58:33.371Z,2112.00
2022-11-21T07:59:33.549Z,2372.00
2022-11-21T08:00:33.703Z,2448.00
2022-11-21T08:01:33.985Z,2380.00
2022-11-21T08:02:34.051Z,2276.00
2022-11-21T08:03:34.214Z,2108.00
2022-11-21T08:04:34.385Z,1848.00
2022-11-21T08:05:34.554Z,1780.00
2022-11-21T08:06:34.733Z,1664.00
2022-11-21T08:07:34.954Z,1904.00
2022-11-21T08:08:35.068Z,2100.00
2022-11-21T08:09:39.684Z,2292.00
2022-11-21T08:10:35.443Z,2440.00
2022-11-21T08:11:35.644Z,2368.00
2022-11-21T08:12:35.816Z,2356.00
2022-11-21T08:13:35.974Z,2084.00
2022-11-21T08:14:36.153Z,1924.00
2022-11-21T08:15:36.324Z,2028.00
2022-11-21T08:16:36.481Z,2148.00
2022-11-21T08:17:36.667Z,2104.00
2022-11-21T08:18:36.830Z,2096.00
2022-11-21T08:19:37.003Z,2032.00
2022-11-21T08:20:37.181Z,1880.00
2022-11-21T08:21:37.357Z,1644.00
2022-11-21T08:22:37.532Z,1568.00
2022-11-21T08:23:37.700Z,1556.00
2022-11-21T08:24:37.904Z,1616.00
2022-11-21T08:25:38.048Z,1608.00
2022-11-21T08:26:38.210Z,1464.00
2022-11-21T08:27:38.411Z,1340.00
2022-11-21T08:28:38.580Z,1352.00
2022-11-21T08:29:38.758Z,1448.00
2022-11-21T08:30:38.918Z,1488.00
2022-11-21T08:31:39.088Z,1404.00
2022-11-21T08:32:39.280Z,1356.00
2022-11-21T08:33:39.447Z,1416.00
2022-11-21T08:34:39.647Z,1488.00
2022-11-21T08:35:39.807Z,1520.00
2022-11-21T08:36:39.978Z,1512.00
2022-11-21T08:37:40.150Z,1680.00
2022-11-21T08:38:40.319Z,1884.00
2022-11-21T08:39:40.488Z,1872.00
2022-11-21T08:40:40.699Z,1728.00
2022-11-21T08:41:40.838Z,1628.00
2022-11-21T08:42:41.017Z,1660.00
2022-11-21T08:43:41.187Z,1760.00
2022-11-21T08:44:41.359Z,1792.00
2022-11-21T08:45:41.527Z,1772.00
2022-11-21T08:46:41.699Z,1904.00
2022-11-21T08:47:41.908Z,2088.00
2022-11-21T08:48:42.062Z,2232.00
2022-11-21T08:49:42.237Z,2244.00
2022-11-21T08:50:42.427Z,2092.00
2022-11-21T08:51:42.596Z,2212.00
2022-11-21T08:52:42.782Z,2284.00
2022-11-21T08:53:42.951Z,2316.00
2022-11-21T08:54:43.105Z,2388.00
2022-11-21T08:55:43.278Z,2408.00
2022-11-21T08:56:43.445Z,2516.00
2022-11-21T08:57:43.625Z,2576.00
2022-11-21T08:58:43.794Z,2608.00
2022-11-21T08:59:43.974Z,2512.00
2022-11-21T09:00:44.135Z,2436.00
2022-11-21T09:01:44.382Z,2264.00
2022-11-21T09:02:44.524Z,2168.00
2022-11-21T09:03:44.686Z,2456.00
2022-11-21T09:04:44.853Z,2564.00
2022-11-21T09:05:45.033Z,2508.00
2022-11-21T09:06:45.201Z,2440.00
2022-11-21T09:07:45.459Z,2408.00
2022-11-21T09:08:45.543Z,2740.00
2022-11-21T09:09:45.715Z,2900.00
2022-11-21T09:10:45.876Z,2764.00
2022-11-21T09:11:46.108Z,2824.00
2022-11-21T09:12:46.212Z,2864.00
2022-11-21T09:13:47.065Z,2892.00
2022-11-21T09:14:46.576Z,2864.00
2022-11-21T09:15:47.985Z,2852.00
2022-11-21T09:16:46.930Z,2740.00
2022-11-21T09:17:47.988Z,2768.00
2022-11-21T09:18:47.264Z,2664.00
2022-11-21T09:19:47.421Z,2612.00
2022-11-21T09:20:47.644Z,2612.00
2022-11-21T09:21:47.771Z,2784.00
2022-11-21T09:22:47.966Z,2976.00
2022-11-21T09:23:48.120Z,3288.00
2022-11-21T09:24:48.290Z,3620.00
2022-11-21T09:25:48.461Z,3508.00
2022-11-21T09:26:48.629Z,3312.00
2022-11-21T09:27:48.839Z,3168.00
2022-11-21T09:28:49.008Z,3084.00
2022-11-21T09:29:53.866Z,2984.00
2022-11-21T09:30:50.322Z,2960.00
2022-11-21T09:31:49.534Z,2856.00
2022-11-21T09:32:49.700Z,2960.00
2022-11-21T09:33:54.863Z,3024.00
2022-11-21T09:34:51.040Z,3100.00
2022-11-21T09:35:50.219Z,3096.00
2022-11-21T09:36:50.389Z,3048.00
2022-11-21T09:37:50.579Z,3064.00
2022-11-21T09:38:50.736Z,2892.00
2022-11-21T09:39:50.906Z,2808.00
2022-11-21T09:40:51.078Z,2764.00
2022-11-21T09:41:51.246Z,2652.00
2022-11-21T09:42:51.428Z,2548.00
2022-11-21T09:43:55.614Z,2596.00
2022-11-21T09:44:51.758Z,2636.00
2022-11-21T09:45:51.937Z,2600.00
2022-11-21T09:46:52.097Z,2856.00
2022-11-21T09:47:52.287Z,3032.00
2022-11-21T09:48:52.476Z,3596.00
2022-11-21T09:49:52.636Z,3976.00
2022-11-21T09:50:54.149Z,3900.00
2022-11-21T09:51:52.976Z,3680.00
2022-11-21T09:52:53.154Z,3616.00
2022-11-21T09:53:53.327Z,3812.00
2022-11-21T09:54:53.489Z,3592.00
2022-11-21T09:55:53.660Z,3452.00
2022-11-21T09:56:53.832Z,3428.00
2022-11-21T09:57:53.996Z,3580.00
2022-11-21T09:58:54.167Z,3728.00
2022-11-21T09:59:54.323Z,3748.00
2022-11-21T10:00:54.599Z,3544.00
2022-11-21T10:01:54.686Z,3600.00
2022-11-21T10:02:54.861Z,3508.00
2022-11-21T10:03:55.016Z,3372.00
2022-11-21T10:04:55.165Z,3192.00
2022-11-21T10:05:55.362Z,3372.00
2022-11-21T10:06:55.504Z,3600.00
2022-11-21T10:07:55.714Z,3480.00
2022-11-21T10:08:55.863Z,3384.00
2022-11-21T10:09:56.054Z,3400.00
2022-11-21T10:10:56.228Z,3468.00
2022-11-21T10:11:56.383Z,3368.00
2022-11-21T10:12:56.599Z,3104.00
2022-11-21T10:13:56.749Z,2928.00
2022-11-21T10:14:56.881Z,2844.00
2022-11-21T10:15:57.063Z,2740.00
2022-11-21T10:16:57.224Z,2860.00
2022-11-21T10:17:57.403Z,2928.00
2022-11-21T10:18:57.557Z,2940.00
2022-11-21T10:19:57.703Z,3060.00
2022-11-21T10:20:57.926Z,2956.00
2022-11-21T10:21:58.093Z,2852.00
2022-11-21T10:22:58.262Z,2696.00
2022-11-21T10:23:58.412Z,2640.00
2022-11-21T10:24:58.582Z,2724.00
2022-11-21T10:25:58.742Z,2804.00
2022-11-21T10:26:58.901Z,3048.00
2022-11-21T10:27:59.062Z,3232.00
2022-11-21T10:28:59.230Z,3344.00
2022-11-21T10:29:59.382Z,3212.00
2022-11-21T10:30:59.590Z,3096.00
2022-11-21T10:31:59.751Z,3300.00
2022-11-21T10:32:59.934Z,3388.00
2022-11-21T10:34:00.074Z,3576.00
2022-11-21T10:35:00.260Z,3636.00
2022-11-21T10:36:00.410Z,3660.00
2022-11-21T10:37:00.601Z,3884.00
2022-11-21T10:38:00.870Z,3692.00
2022-11-21T10:39:01.036Z,3920.00
2022-11-21T10:40:01.409Z,3724.00
2022-11-21T10:41:01.476Z,3892.00
2022-11-21T10:42:01.508Z,3888.00
2022-11-21T10:43:01.731Z,3648.00
2022-11-21T10:44:01.880Z,3640.00
2022-11-21T10:45:02.053Z,3536.00
2022-11-21T10:46:02.192Z,3652.00
2022-11-21T10:47:02.378Z,3884.00
2022-11-21T10:48:07.888Z,4032.00
2022-11-21T10:49:03.728Z,3860.00
2022-11-21T10:50:02.887Z,3900.00
2022-11-21T10:51:03.049Z,3968.00
2022-11-21T10:52:03.220Z,3876.00
2022-11-21T10:53:03.388Z,3536.00
2022-11-21T10:54:07.750Z,3612.00
2022-11-21T10:55:03.692Z,4048.00
2022-11-21T10:56:03.875Z,3976.00
2022-11-21T10:57:04.069Z,3964.00
2022-11-21T10:58:04.277Z,3872.00
2022-11-21T10:59:04.425Z,3720.00
2022-11-21T11:00:04.578Z,3696.00
2022-11-21T11:01:04.860Z,3536.00
2022-11-21T11:02:04.947Z,3256.00
2022-11-21T11:03:05.181Z,3540.00
2022-11-21T11:04:26.887Z,3808.00
2022-11-21T11:05:07.417Z,3908.00
2022-11-21T11:06:05.656Z,3988.00
2022-11-21T11:07:05.830Z,3828.00
2022-11-21T11:08:05.975Z,3880.00
2022-11-21T11:09:06.140Z,3444.00
2022-11-21T11:10:06.315Z,3528.00
2022-11-21T11:11:06.510Z,3376.00
2022-11-21T11:12:06.685Z,3196.00
2022-11-21T11:13:30.851Z,3080.00
2022-11-21T11:14:08.077Z,3372.00
2022-11-21T11:15:07.257Z,3236.00
2022-11-21T11:16:07.411Z,3300.00
2022-11-21T11:17:07.565Z,3272.00
2022-11-21T11:18:09.780Z,3272.00
2022-11-21T11:19:07.934Z,3392.00
2022-11-21T11:20:08.097Z,3144.00
2022-11-21T11:21:08.284Z,2900.00
2022-11-21T11:22:08.434Z,3020.00
2022-11-21T11:23:08.661Z,2896.00
2022-11-21T11:24:08.793Z,3148.00
2022-11-21T11:25:08.993Z,3228.00
2022-11-21T11:26:09.159Z,3084.00
2022-11-21T11:27:09.314Z,3068.00
2022-11-21T11:28:09.490Z,3076.00
2022-11-21T11:29:09.700Z,3092.00
2022-11-21T11:30:09.831Z,2980.00
2022-11-21T11:31:09.982Z,3320.00
2022-11-21T11:32:10.144Z,3468.00
2022-11-21T11:33:10.322Z,3468.00
2022-11-21T11:34:10.463Z,3224.00
2022-11-21T11:35:10.655Z,3136.00
2022-11-21T11:36:10.834Z,2968.00
2022-11-21T11:37:11.032Z,2964.00
2022-11-21T11:38:11.221Z,2956.00
2022-11-21T11:39:11.381Z,3080.00
2022-11-21T11:40:11.562Z,3068.00
2022-11-21T11:41:11.742Z,2996.00
2022-11-21T11:42:16.617Z,3000.00
2022-11-21T11:43:13.136Z,2988.00
2022-11-21T11:44:12.281Z,3012.00
2022-11-21T11:45:12.471Z,2956.00
2022-11-21T11:46:12.622Z,2820.00
2022-11-21T11:47:12.820Z,2768.00
2022-11-21T11:48:12.980Z,2720.00
2022-11-21T11:49:21.596Z,2628.00
2022-11-21T11:50:14.344Z,2560.00
2022-11-21T11:51:13.490Z,2536.00
2022-11-21T11:52:13.633Z,2564.00
2022-11-21T11:53:13.841Z,2888.00
2022-11-21T11:54:13.994Z,3200.00
2022-11-21T11:55:14.169Z,3560.00
2022-11-21T11:56:14.311Z,3480.00
2022-11-21T11:57:14.526Z,3580.00
2022-11-21T11:58:14.698Z,3488.00
2022-11-21T11:59:14.879Z,3524.00
2022-11-21T12:00:15.049Z,3624.00
2022-11-21T12:01:15.228Z,3532.00
2022-11-21T12:02:15.438Z,3516.00
2022-11-21T12:03:15.580Z,3516.00
2022-11-21T12:04:15.734Z,3528.00
2022-11-21T12:05:15.909Z,3492.00
2022-11-21T12:06:16.103Z,3576.00
2022-11-21T12:08:40.251Z,3388.00
2022-11-21T12:09:17.650Z,3448.00
2022-11-21T12:10:16.800Z,3328.00
2022-11-21T12:11:19.934Z,3160.00
2022-11-21T12:12:18.169Z,3032.00
2022-11-21T12:13:17.419Z,3004.00
2022-11-21T12:14:17.546Z,3084.00
2022-11-21T12:15:17.736Z,3224.00
2022-11-21T12:16:17.864Z,3144.00
2022-11-21T12:17:18.046Z,3056.00
2022-11-21T12:18:18.247Z,3072.00
2022-11-21T12:19:18.392Z,3108.00
2022-11-21T12:20:18.565Z,3040.00
2022-11-21T12:21:18.772Z,2948.00
2022-11-21T12:22:18.929Z,2836.00
2022-11-21T12:23:19.126Z,2812.00
2022-11-21T12:24:19.276Z,2872.00
2022-11-21T12:25:19.417Z,2752.00
2022-11-21T12:26:19.596Z,2748.00
2022-11-21T12:27:19.775Z,2772.00
2022-11-21T12:28:19.956Z,2900.00
2022-11-21T12:29:20.155Z,2932.00
2022-11-21T12:30:20.306Z,2856.00
2022-11-21T12:31:20.495Z,2672.00
2022-11-21T12:32:20.638Z,2652.00
2022-11-21T12:33:20.862Z,2696.00
2022-11-21T12:34:20.999Z,2672.00
2022-11-21T12:35:21.185Z,2596.00
2022-11-21T12:36:21.355Z,2608.00
2022-11-21T12:37:21.542Z,2644.00
2022-11-21T12:38:21.724Z,2728.00
2022-11-21T12:39:21.864Z,2724.00
2022-11-21T12:40:22.044Z,2724.00
2022-11-21T12:41:22.226Z,2808.00
2022-11-21T12:42:22.405Z,2784.00
2022-11-21T12:43:22.623Z,2572.00
2022-11-21T12:44:22.753Z,2412.00
2022-11-21T12:45:22.934Z,2296.00
2022-11-21T12:46:23.107Z,2212.00